Caribe Navigator — V2PW6 — position and weather

sailwx.info

Track history (hours):
 
Tides and Currents Weather Stations Pressure Air Temp Water Temp Dewpoint Dewpoint Depression Visibility Wind Speed Wind Dir Waves Ship Positions

Caribe Navigator

Last reported at 2016-Jul-27 22:31 UTC. Time now 2016-Jul-27 23:01 UTC.
Position N 26°05' W 080°07'.

Length 100 m; draft 5.2 m.

Type: Cargo ship. MMSI: 305289000.

Date/timePositionNaut miles runAvg speedWind from/ knotsBaromVisibWave heightAir tempDewpointWater temp
2016-Jul-27 22:31N 26°05' W 080°07'0 0.1
2016-Jul-27 21:31N 26°05' W 080°07'0 0.0
2016-Jul-27 20:31N 26°05' W 080°07'0 0.0
2016-Jul-27 19:31N 26°05' W 080°07'0 0.0
2016-Jul-27 18:31N 26°05' W 080°07'0 0.0
2016-Jul-27 17:22N 26°05' W 080°07'0 0.0
2016-Jul-27 16:22N 26°05' W 080°07'0 0.0
2016-Jul-27 15:22N 26°05' W 080°07'0 0.0
2016-Jul-27 14:22N 26°05' W 080°07'0 0.0
2016-Jul-27 13:25N 26°05' W 080°07'0 0.0
2016-Jul-27 12:25N 26°05' W 080°07'0 0.0
2016-Jul-27 11:25N 26°05' W 080°07'0 0.0
2016-Jul-27 10:25N 26°05' W 080°07'0 0.0
2016-Jul-27 09:22N 26°05' W 080°07'0 0.0
2016-Jul-27 08:28N 26°05' W 080°07'0 0.0
2016-Jul-27 07:28N 26°05' W 080°07'0 0.0
2016-Jul-27 06:28N 26°05' W 080°07'0 0.0
2016-Jul-27 05:28N 26°05' W 080°07'0 0.0
2016-Jul-27 04:28N 26°05' W 080°07'0 0.0
2016-Jul-27 03:31N 26°05' W 080°07'0 0.0
2016-Jul-27 02:31N 26°05' W 080°07'0 0.0
2016-Jul-27 01:30N 26°05' W 080°07'0 0.0
2016-Jul-27 00:30N 26°05' W 080°07'2 1.7
2016-Jul-26 23:34N 26°06' W 080°05'10 9.9
2016-Jul-26 22:33N 25°56' W 080°02'12 1.9
2016-Jul-26 16:13N 25°46' W 080°10'1 0.3
2016-Jul-26 12:23N 25°46' W 080°09'8 9.3
2016-Jul-26 11:33N 25°44' W 080°01'  
2016-Jul-21 23:15N 25°35' W 080°02'710.0
2016-Jul-21 22:33N 25°42' W 080°02'1010.1
2016-Jul-21 21:33N 25°52' W 080°03'1111.4
2016-Jul-21 20:34N 26°03' W 080°05'3 3.2
2016-Jul-21 19:31N 26°05' W 080°07'0 0.0
2016-Jul-21 18:34N 26°05' W 080°07'0 0.0
2016-Jul-21 17:33N 26°05' W 080°07'0 0.0
2016-Jul-21 16:33N 26°05' W 080°07'0 0.0
2016-Jul-21 15:33N 26°05' W 080°07'0 0.0
2016-Jul-21 14:33N 26°05' W 080°07'0 0.0
2016-Jul-21 13:33N 26°05' W 080°07'0 0.0
2016-Jul-21 12:33N 26°05' W 080°07'0 0.0
2016-Jul-21 11:33N 26°05' W 080°07'0 0.0
2016-Jul-21 10:33N 26°05' W 080°07'0 0.0
2016-Jul-21 09:33N 26°05' W 080°07'0 0.0
2016-Jul-21 08:33N 26°05' W 080°07'0 0.0
2016-Jul-21 07:33N 26°05' W 080°07'0 0.0
2016-Jul-21 06:33N 26°05' W 080°07'0 0.0
2016-Jul-21 04:24N 26°05' W 080°07'0 0.0
2016-Jul-21 03:27N 26°05' W 080°07'0 0.0
2016-Jul-21 02:27N 26°05' W 080°07'0 0.0
2016-Jul-21 01:27N 26°05' W 080°07'0 0.0
2016-Jul-21 00:27N 26°05' W 080°07'0 0.0
2016-Jul-20 23:27N 26°05' W 080°07'0 0.0
2016-Jul-20 22:30N 26°05' W 080°07'0 0.1
2016-Jul-20 21:30N 26°05' W 080°07'0 0.0
2016-Jul-20 20:30N 26°05' W 080°07'0 0.0
2016-Jul-20 19:30N 26°05' W 080°07'0 0.0
2016-Jul-20 18:30N 26°05' W 080°07'0 0.0
2016-Jul-20 17:33N 26°05' W 080°07'0 0.0
2016-Jul-20 16:33N 26°05' W 080°07'0 0.0
2016-Jul-20 15:33N 26°05' W 080°07'0 0.0
2016-Jul-20 14:30N 26°05' W 080°07'0 0.0
2016-Jul-20 13:33N 26°05' W 080°07'0 0.0
2016-Jul-20 11:33N 26°05' W 080°07'0 0.0
2016-Jul-20 10:33N 26°05' W 080°07'0 0.0
2016-Jul-20 09:21N 26°05' W 080°07'0 0.0
2016-Jul-20 08:33N 26°05' W 080°07'0 0.0
2016-Jul-20 07:24N 26°05' W 080°07'0 0.0
2016-Jul-20 06:32N 26°05' W 080°07'0 0.0
2016-Jul-20 05:23N 26°05' W 080°07'0 0.0
2016-Jul-20 04:23N 26°05' W 080°07'0 0.0
2016-Jul-20 03:23N 26°05' W 080°07'0 0.0
2016-Jul-20 02:26N 26°05' W 080°07'0 0.0
2016-Jul-20 01:26N 26°05' W 080°07'0 0.0
2016-Jul-20 00:26N 26°05' W 080°07'0 0.0
2016-Jul-19 23:26N 26°05' W 080°07'0 0.0
2016-Jul-19 22:26N 26°05' W 080°07'0 0.0
2016-Jul-19 21:29N 26°05' W 080°07'5 5.4
2016-Jul-19 20:33N 26°02' W 080°03'7 7.4
2016-Jul-19 19:34N 25°55' W 080°02'8 8.1
2016-Jul-19 18:33N 25°47' W 080°05'4 0.6
2016-Jul-19 11:23N 25°46' W 080°10'910.4
2016-Jul-19 10:33N 25°43' W 080°01'  
Track history (hours):
 
Tides and Currents Weather Stations Pressure Air Temp Water Temp Dewpoint Dewpoint Depression Visibility Wind Speed Wind Dir Waves Ship Positions

Caribe Navigator

Last reported at 2016-Jul-27 22:31 UTC. Time now 2016-Jul-27 23:01 UTC.
Position N 26°05' W 080°07'.

Length 100 m; draft 5.2 m.

Type: Cargo ship. MMSI: 305289000.

Date/timePositionNaut miles runAvg speedWind from/ knotsBaromVisibWave heightAir tempDewpointWater temp
2016-Jul-27 22:31N 26°05' W 080°07'0 0.1
2016-Jul-27 21:31N 26°05' W 080°07'0 0.0
2016-Jul-27 20:31N 26°05' W 080°07'0 0.0
2016-Jul-27 19:31N 26°05' W 080°07'0 0.0
2016-Jul-27 18:31N 26°05' W 080°07'0 0.0
2016-Jul-27 17:22N 26°05' W 080°07'0 0.0
2016-Jul-27 16:22N 26°05' W 080°07'0 0.0
2016-Jul-27 15:22N 26°05' W 080°07'0 0.0
2016-Jul-27 14:22N 26°05' W 080°07'0 0.0
2016-Jul-27 13:25N 26°05' W 080°07'0 0.0
2016-Jul-27 12:25N 26°05' W 080°07'0 0.0
2016-Jul-27 11:25N 26°05' W 080°07'0 0.0
2016-Jul-27 10:25N 26°05' W 080°07'0 0.0
2016-Jul-27 09:22N 26°05' W 080°07'0 0.0
2016-Jul-27 08:28N 26°05' W 080°07'0 0.0
2016-Jul-27 07:28N 26°05' W 080°07'0 0.0
2016-Jul-27 06:28N 26°05' W 080°07'0 0.0
2016-Jul-27 05:28N 26°05' W 080°07'0 0.0
2016-Jul-27 04:28N 26°05' W 080°07'0 0.0
2016-Jul-27 03:31N 26°05' W 080°07'0 0.0
2016-Jul-27 02:31N 26°05' W 080°07'0 0.0
2016-Jul-27 01:30N 26°05' W 080°07'0 0.0
2016-Jul-27 00:30N 26°05' W 080°07'2 1.7
2016-Jul-26 23:34N 26°06' W 080°05'10 9.9
2016-Jul-26 22:33N 25°56' W 080°02'12 1.9
2016-Jul-26 16:13N 25°46' W 080°10'1 0.3
2016-Jul-26 12:23N 25°46' W 080°09'8 9.3
2016-Jul-26 11:33N 25°44' W 080°01'  
2016-Jul-21 23:15N 25°35' W 080°02'710.0
2016-Jul-21 22:33N 25°42' W 080°02'1010.1
2016-Jul-21 21:33N 25°52' W 080°03'1111.4
2016-Jul-21 20:34N 26°03' W 080°05'3 3.2
2016-Jul-21 19:31N 26°05' W 080°07'0 0.0
2016-Jul-21 18:34N 26°05' W 080°07'0 0.0
2016-Jul-21 17:33N 26°05' W 080°07'0 0.0
2016-Jul-21 16:33N 26°05' W 080°07'0 0.0
2016-Jul-21 15:33N 26°05' W 080°07'0 0.0
2016-Jul-21 14:33N 26°05' W 080°07'0 0.0
2016-Jul-21 13:33N 26°05' W 080°07'0 0.0
2016-Jul-21 12:33N 26°05' W 080°07'0 0.0
2016-Jul-21 11:33N 26°05' W 080°07'0 0.0
2016-Jul-21 10:33N 26°05' W 080°07'0 0.0
2016-Jul-21 09:33N 26°05' W 080°07'0 0.0
2016-Jul-21 08:33N 26°05' W 080°07'0 0.0
2016-Jul-21 07:33N 26°05' W 080°07'0 0.0
2016-Jul-21 06:33N 26°05' W 080°07'0 0.0
2016-Jul-21 04:24N 26°05' W 080°07'0 0.0
2016-Jul-21 03:27N 26°05' W 080°07'0 0.0
2016-Jul-21 02:27N 26°05' W 080°07'0 0.0
2016-Jul-21 01:27N 26°05' W 080°07'0 0.0
2016-Jul-21 00:27N 26°05' W 080°07'0 0.0
2016-Jul-20 23:27N 26°05' W 080°07'0 0.0
2016-Jul-20 22:30N 26°05' W 080°07'0 0.1
2016-Jul-20 21:30N 26°05' W 080°07'0 0.0
2016-Jul-20 20:30N 26°05' W 080°07'0 0.0
2016-Jul-20 19:30N 26°05' W 080°07'0 0.0
2016-Jul-20 18:30N 26°05' W 080°07'0 0.0
2016-Jul-20 17:33N 26°05' W 080°07'0 0.0
2016-Jul-20 16:33N 26°05' W 080°07'0 0.0
2016-Jul-20 15:33N 26°05' W 080°07'0 0.0
2016-Jul-20 14:30N 26°05' W 080°07'0 0.0
2016-Jul-20 13:33N 26°05' W 080°07'0 0.0
2016-Jul-20 11:33N 26°05' W 080°07'0 0.0
2016-Jul-20 10:33N 26°05' W 080°07'0 0.0
2016-Jul-20 09:21N 26°05' W 080°07'0 0.0
2016-Jul-20 08:33N 26°05' W 080°07'0 0.0
2016-Jul-20 07:24N 26°05' W 080°07'0 0.0
2016-Jul-20 06:32N 26°05' W 080°07'0 0.0
2016-Jul-20 05:23N 26°05' W 080°07'0 0.0
2016-Jul-20 04:23N 26°05' W 080°07'0 0.0
2016-Jul-20 03:23N 26°05' W 080°07'0 0.0
2016-Jul-20 02:26N 26°05' W 080°07'0 0.0
2016-Jul-20 01:26N 26°05' W 080°07'0 0.0
2016-Jul-20 00:26N 26°05' W 080°07'0 0.0
2016-Jul-19 23:26N 26°05' W 080°07'0 0.0
2016-Jul-19 22:26N 26°05' W 080°07'0 0.0
2016-Jul-19 21:29N 26°05' W 080°07'5 5.4
2016-Jul-19 20:33N 26°02' W 080°03'7 7.4
2016-Jul-19 19:34N 25°55' W 080°02'8 8.1
2016-Jul-19 18:33N 25°47' W 080°05'4 0.6
2016-Jul-19 11:23N 25°46' W 080°10'910.4
2016-Jul-19 10:33N 25°43' W 080°01'  

Dump ship's entire track history